DLH7934 EDDN-EDDF
Flight info
| Callsign | DLH7934 |
|---|---|
| Flight time | 0h 33m |
| Altitude | 18000 |
| Route | SUKAD1G/28 SUKAD DCT PIWAW T159 SPESA SPESA5C |
| Aircraft | A320/M-S/L |
Departure
| Time | 2026-04-15 07:12 |
|---|---|
| Airport | Nuremberg Airport (EDDN) |
Arrival
| Time | 2026-04-15 07:46 |
|---|---|
| Airport | Frankfurt Main Airport (EDDF) |
| Time | Latitude | Longitude | Altitude | Speed | Heading |
|---|---|---|---|---|---|
| 2026-04-15 06:48 | 49.49518 | 11.07791 | 1026 ft | 0 kts | 188° |
| 2026-04-15 07:04 | 49.49531 | 11.07794 | 1023 ft | 2 kts | 188° |
| 2026-04-15 07:04 | 49.49547 | 11.07797 | 1026 ft | 2 kts | 187° |
| 2026-04-15 07:05 | 49.49563 | 11.07798 | 1024 ft | 2 kts | 160° |
| 2026-04-15 07:05 | 49.49577 | 11.07786 | 1026 ft | 2 kts | 127° |
| 2026-04-15 07:05 | 49.49585 | 11.07764 | 1027 ft | 1 kts | 95° |
| 2026-04-15 07:07 | 49.49585 | 11.07769 | 1027 ft | 4 kts | 94° |
| 2026-04-15 07:07 | 49.49579 | 11.07832 | 1026 ft | 6 kts | 99° |
| 2026-04-15 07:07 | 49.49572 | 11.07904 | 1026 ft | 10 kts | 98° |
| 2026-04-15 07:08 | 49.49562 | 11.08009 | 1028 ft | 9 kts | 99° |
| 2026-04-15 07:08 | 49.49552 | 11.08103 | 1028 ft | 8 kts | 99° |
| 2026-04-15 07:08 | 49.49543 | 11.08187 | 1024 ft | 8 kts | 98° |
| 2026-04-15 07:08 | 49.49537 | 11.08265 | 1028 ft | 8 kts | 96° |
| 2026-04-15 07:09 | 49.49550 | 11.08329 | 1028 ft | 7 kts | 47° |
| 2026-04-15 07:09 | 49.49599 | 11.08372 | 1033 ft | 9 kts | 42° |
| 2026-04-15 07:09 | 49.49609 | 11.08487 | 1035 ft | 14 kts | 96° |
| 2026-04-15 07:09 | 49.49596 | 11.08630 | 1036 ft | 17 kts | 98° |
| 2026-04-15 07:10 | 49.49576 | 11.08833 | 1038 ft | 20 kts | 99° |
| 2026-04-15 07:10 | 49.49553 | 11.09058 | 1040 ft | 22 kts | 98° |
| 2026-04-15 07:10 | 49.49534 | 11.09244 | 1043 ft | 16 kts | 99° |
| 2026-04-15 07:10 | 49.49551 | 11.09400 | 1047 ft | 15 kts | 59° |
| 2026-04-15 07:11 | 49.49607 | 11.09525 | 1050 ft | 14 kts | 50° |
| 2026-04-15 07:11 | 49.49685 | 11.09542 | 1053 ft | 13 kts | 316° |
| 2026-04-15 07:11 | 49.49708 | 11.09440 | 1051 ft | 0 kts | 280° |
| 2026-04-15 07:11 | 49.49731 | 11.09217 | 1047 ft | 62 kts | 278° |
| 2026-04-15 07:12 | 49.49835 | 11.08155 | 1034 ft | 135 kts | 279° |
| 2026-04-15 07:12 | 49.49965 | 11.06510 | 1376 ft | 161 kts | 276° |
| 2026-04-15 07:12 | 49.50102 | 11.04825 | 2221 ft | 159 kts | 279° |
| 2026-04-15 07:12 | 49.50284 | 11.03049 | 2778 ft | 178 kts | 279° |
| 2026-04-15 07:13 | 49.50493 | 11.01045 | 3285 ft | 201 kts | 279° |
| 2026-04-15 07:13 | 49.50723 | 10.98805 | 3752 ft | 223 kts | 279° |
| 2026-04-15 07:13 | 49.50969 | 10.96361 | 4423 ft | 236 kts | 278° |
| 2026-04-15 07:13 | 49.51219 | 10.93849 | 5409 ft | 239 kts | 278° |
| 2026-04-15 07:14 | 49.51470 | 10.91308 | 6411 ft | 241 kts | 278° |
| 2026-04-15 07:14 | 49.51721 | 10.88737 | 7365 ft | 244 kts | 277° |
| 2026-04-15 07:14 | 49.51972 | 10.86140 | 8300 ft | 247 kts | 277° |
| 2026-04-15 07:14 | 49.52222 | 10.83543 | 9246 ft | 250 kts | 277° |
| 2026-04-15 07:15 | 49.52480 | 10.80848 | 10244 ft | 252 kts | 278° |
| 2026-04-15 07:15 | 49.52732 | 10.78202 | 11114 ft | 255 kts | 278° |
| 2026-04-15 07:15 | 49.52994 | 10.75478 | 11986 ft | 259 kts | 278° |
| 2026-04-15 07:15 | 49.53261 | 10.72717 | 12883 ft | 263 kts | 278° |
| 2026-04-15 07:16 | 49.53529 | 10.69914 | 13832 ft | 267 kts | 278° |
| 2026-04-15 07:16 | 49.53797 | 10.67068 | 14681 ft | 271 kts | 279° |
| 2026-04-15 07:16 | 49.54068 | 10.64177 | 15507 ft | 275 kts | 279° |
| 2026-04-15 07:16 | 49.54345 | 10.61228 | 16076 ft | 280 kts | 279° |
| 2026-04-15 07:17 | 49.54627 | 10.58255 | 16243 ft | 281 kts | 279° |
| 2026-04-15 07:17 | 49.55006 | 10.55177 | 16283 ft | 305 kts | 287° |
| 2026-04-15 07:17 | 49.55787 | 10.52087 | 16284 ft | 312 kts | 298° |
| 2026-04-15 07:17 | 49.56952 | 10.49266 | 16285 ft | 313 kts | 307° |
| 2026-04-15 07:18 | 49.58235 | 10.46546 | 16284 ft | 314 kts | 307° |
| 2026-04-15 07:18 | 49.59509 | 10.43813 | 16284 ft | 314 kts | 307° |
| 2026-04-15 07:18 | 49.60782 | 10.41070 | 16286 ft | 314 kts | 306° |
| 2026-04-15 07:18 | 49.62053 | 10.38322 | 16284 ft | 314 kts | 306° |
| 2026-04-15 07:19 | 49.63319 | 10.35579 | 16289 ft | 315 kts | 306° |
| 2026-04-15 07:19 | 49.64589 | 10.32825 | 16285 ft | 315 kts | 306° |
| 2026-04-15 07:19 | 49.65829 | 10.30044 | 16284 ft | 315 kts | 300° |
| 2026-04-15 07:19 | 49.66656 | 10.26909 | 16282 ft | 316 kts | 290° |
| 2026-04-15 07:20 | 49.67363 | 10.23692 | 16152 ft | 316 kts | 289° |
| 2026-04-15 07:20 | 49.68059 | 10.20477 | 15978 ft | 315 kts | 289° |
| 2026-04-15 07:20 | 49.68739 | 10.17312 | 15797 ft | 314 kts | 289° |
| 2026-04-15 07:20 | 49.69425 | 10.14111 | 15631 ft | 314 kts | 289° |
| 2026-04-15 07:21 | 49.70114 | 10.10914 | 15455 ft | 313 kts | 289° |
| 2026-04-15 07:21 | 49.70799 | 10.07731 | 15280 ft | 312 kts | 289° |
| 2026-04-15 07:21 | 49.71482 | 10.04555 | 15105 ft | 311 kts | 289° |
| 2026-04-15 07:21 | 49.72164 | 10.01384 | 14927 ft | 311 kts | 289° |
| 2026-04-15 07:22 | 49.72847 | 9.98216 | 14756 ft | 310 kts | 289° |
| 2026-04-15 07:22 | 49.73524 | 9.95060 | 14586 ft | 309 kts | 289° |
| 2026-04-15 07:22 | 49.74197 | 9.91910 | 14411 ft | 308 kts | 289° |
| 2026-04-15 07:22 | 49.74868 | 9.88766 | 14248 ft | 307 kts | 289° |
| 2026-04-15 07:23 | 49.75537 | 9.85627 | 14075 ft | 307 kts | 289° |
| 2026-04-15 07:23 | 49.76205 | 9.82502 | 13898 ft | 306 kts | 289° |
| 2026-04-15 07:23 | 49.76872 | 9.79377 | 13698 ft | 305 kts | 289° |
| 2026-04-15 07:23 | 49.77352 | 9.76195 | 13519 ft | 304 kts | 277° |
| 2026-04-15 07:24 | 49.77613 | 9.72955 | 13331 ft | 303 kts | 277° |
| 2026-04-15 07:24 | 49.77873 | 9.69729 | 13146 ft | 302 kts | 277° |
| 2026-04-15 07:24 | 49.78130 | 9.66511 | 12968 ft | 301 kts | 277° |
| 2026-04-15 07:24 | 49.78390 | 9.63294 | 12783 ft | 300 kts | 277° |
| 2026-04-15 07:25 | 49.78647 | 9.60137 | 12607 ft | 299 kts | 277° |
| 2026-04-15 07:25 | 49.78904 | 9.56956 | 12430 ft | 298 kts | 277° |
| 2026-04-15 07:25 | 49.79159 | 9.53782 | 12246 ft | 297 kts | 277° |
| 2026-04-15 07:25 | 49.79415 | 9.50622 | 12076 ft | 296 kts | 277° |
| 2026-04-15 07:26 | 49.79670 | 9.47464 | 11897 ft | 295 kts | 277° |
| 2026-04-15 07:26 | 49.79922 | 9.44317 | 11723 ft | 294 kts | 277° |
| 2026-04-15 07:26 | 49.80169 | 9.41183 | 11543 ft | 293 kts | 276° |
| 2026-04-15 07:26 | 49.80413 | 9.38056 | 11378 ft | 292 kts | 276° |
| 2026-04-15 07:27 | 49.80654 | 9.34940 | 11260 ft | 291 kts | 276° |
| 2026-04-15 07:27 | 49.80894 | 9.31830 | 11264 ft | 291 kts | 276° |
| 2026-04-15 07:27 | 49.81136 | 9.28719 | 11268 ft | 291 kts | 276° |
| 2026-04-15 07:27 | 49.81374 | 9.25606 | 11269 ft | 291 kts | 276° |
| 2026-04-15 07:28 | 49.81611 | 9.22491 | 11268 ft | 291 kts | 276° |
| 2026-04-15 07:28 | 49.81851 | 9.19383 | 11269 ft | 288 kts | 276° |
| 2026-04-15 07:28 | 49.82083 | 9.16376 | 11250 ft | 275 kts | 276° |
| 2026-04-15 07:28 | 49.82307 | 9.13433 | 10883 ft | 273 kts | 276° |
| 2026-04-15 07:29 | 49.82522 | 9.10558 | 10578 ft | 266 kts | 276° |
| 2026-04-15 07:29 | 49.82736 | 9.07722 | 10291 ft | 264 kts | 276° |
| 2026-04-15 07:29 | 49.82921 | 9.05279 | 10026 ft | 263 kts | 276° |
| 2026-04-15 07:29 | 49.83134 | 9.02475 | 9710 ft | 262 kts | 276° |
| 2026-04-15 07:30 | 49.83349 | 8.99679 | 9393 ft | 261 kts | 276° |
| 2026-04-15 07:30 | 49.83489 | 8.97832 | 9188 ft | 260 kts | 276° |
| 2026-04-15 07:30 | 49.83698 | 8.95054 | 8876 ft | 259 kts | 276° |
| 2026-04-15 07:30 | 49.83903 | 8.92289 | 8565 ft | 258 kts | 276° |
| 2026-04-15 07:31 | 49.84106 | 8.89528 | 8263 ft | 258 kts | 276° |
| 2026-04-15 07:31 | 49.84308 | 8.86776 | 7958 ft | 256 kts | 276° |
| 2026-04-15 07:31 | 49.84506 | 8.84039 | 7659 ft | 255 kts | 276° |
| 2026-04-15 07:31 | 49.84702 | 8.81314 | 7377 ft | 254 kts | 276° |
| 2026-04-15 07:32 | 49.84902 | 8.78599 | 7285 ft | 253 kts | 276° |
| 2026-04-15 07:32 | 49.85101 | 8.75883 | 7293 ft | 254 kts | 276° |
| 2026-04-15 07:32 | 49.85300 | 8.73165 | 7295 ft | 254 kts | 276° |
| 2026-04-15 07:32 | 49.85499 | 8.70443 | 7237 ft | 256 kts | 276° |
| 2026-04-15 07:33 | 49.85697 | 8.67704 | 6938 ft | 254 kts | 276° |
| 2026-04-15 07:33 | 49.85892 | 8.64996 | 6705 ft | 252 kts | 276° |
| 2026-04-15 07:33 | 49.86086 | 8.62296 | 6450 ft | 252 kts | 276° |
| 2026-04-15 07:33 | 49.86280 | 8.59595 | 6184 ft | 253 kts | 276° |
| 2026-04-15 07:34 | 49.86473 | 8.56892 | 5915 ft | 252 kts | 276° |
| 2026-04-15 07:34 | 49.86664 | 8.54190 | 5665 ft | 252 kts | 276° |
| 2026-04-15 07:34 | 49.86856 | 8.51492 | 5402 ft | 252 kts | 276° |
| 2026-04-15 07:34 | 49.87049 | 8.48797 | 5149 ft | 252 kts | 276° |
| 2026-04-15 07:35 | 49.87238 | 8.46099 | 4884 ft | 252 kts | 276° |
| 2026-04-15 07:35 | 49.87424 | 8.43406 | 4622 ft | 251 kts | 276° |
| 2026-04-15 07:35 | 49.87608 | 8.40721 | 4348 ft | 250 kts | 276° |
| 2026-04-15 07:35 | 49.87793 | 8.38053 | 4103 ft | 249 kts | 276° |
| 2026-04-15 07:36 | 49.87980 | 8.35387 | 3999 ft | 249 kts | 276° |
| 2026-04-15 07:36 | 49.88122 | 8.32720 | 4002 ft | 249 kts | 271° |
| 2026-04-15 07:36 | 49.87989 | 8.30055 | 4001 ft | 248 kts | 259° |
| 2026-04-15 07:36 | 49.87573 | 8.27493 | 4000 ft | 248 kts | 250° |
| 2026-04-15 07:37 | 49.86968 | 8.24987 | 4001 ft | 248 kts | 248° |
| 2026-04-15 07:37 | 49.86356 | 8.22487 | 3999 ft | 248 kts | 248° |
| 2026-04-15 07:37 | 49.85745 | 8.19989 | 3998 ft | 248 kts | 248° |
| 2026-04-15 07:37 | 49.85220 | 8.17445 | 3995 ft | 248 kts | 262° |
| 2026-04-15 07:38 | 49.85435 | 8.14819 | 4002 ft | 248 kts | 294° |
| 2026-04-15 07:38 | 49.86477 | 8.12749 | 4000 ft | 246 kts | 326° |
| 2026-04-15 07:38 | 49.88012 | 8.11833 | 3996 ft | 228 kts | 357° |
| 2026-04-15 07:38 | 49.89445 | 8.12279 | 3999 ft | 200 kts | 28° |
| 2026-04-15 07:39 | 49.90653 | 8.13295 | 4010 ft | 198 kts | 33° |
| 2026-04-15 07:39 | 49.91830 | 8.14386 | 4004 ft | 197 kts | 34° |
| 2026-04-15 07:39 | 49.92992 | 8.15497 | 4024 ft | 197 kts | 37° |
| 2026-04-15 07:39 | 49.93910 | 8.17024 | 4012 ft | 193 kts | 62° |
| 2026-04-15 07:40 | 49.94427 | 8.18941 | 4008 ft | 193 kts | 71° |
| 2026-04-15 07:40 | 49.94898 | 8.20896 | 3999 ft | 193 kts | 71° |
| 2026-04-15 07:40 | 49.95370 | 8.22844 | 4000 ft | 193 kts | 71° |
| 2026-04-15 07:40 | 49.95842 | 8.24784 | 4002 ft | 193 kts | 71° |
| 2026-04-15 07:41 | 49.96314 | 8.26729 | 3934 ft | 192 kts | 70° |
| 2026-04-15 07:41 | 49.96784 | 8.28668 | 3730 ft | 191 kts | 70° |
| 2026-04-15 07:41 | 49.97236 | 8.30530 | 3502 ft | 178 kts | 70° |
| 2026-04-15 07:41 | 49.97655 | 8.32255 | 3255 ft | 162 kts | 71° |
| 2026-04-15 07:42 | 49.98036 | 8.33829 | 3046 ft | 152 kts | 70° |
| 2026-04-15 07:42 | 49.98399 | 8.35330 | 2850 ft | 146 kts | 71° |
| 2026-04-15 07:42 | 49.98742 | 8.36749 | 2663 ft | 137 kts | 72° |
| 2026-04-15 07:42 | 49.99070 | 8.38108 | 2491 ft | 133 kts | 71° |
| 2026-04-15 07:43 | 49.99399 | 8.39481 | 2361 ft | 141 kts | 71° |
| 2026-04-15 07:43 | 49.99746 | 8.40919 | 2074 ft | 140 kts | 71° |
| 2026-04-15 07:43 | 50.00071 | 8.42255 | 1886 ft | 131 kts | 71° |
| 2026-04-15 07:43 | 50.00385 | 8.43563 | 1727 ft | 127 kts | 71° |
| 2026-04-15 07:44 | 50.00690 | 8.44836 | 1578 ft | 125 kts | 71° |
| 2026-04-15 07:44 | 50.00996 | 8.46113 | 1477 ft | 127 kts | 71° |
| 2026-04-15 07:44 | 50.01310 | 8.47425 | 1192 ft | 133 kts | 70° |
| 2026-04-15 07:44 | 50.01633 | 8.48764 | 1015 ft | 131 kts | 69° |
| 2026-04-15 07:45 | 50.01949 | 8.50083 | 840 ft | 129 kts | 69° |
| 2026-04-15 07:45 | 50.02257 | 8.51363 | 672 ft | 124 kts | 69° |
| 2026-04-15 07:45 | 50.02557 | 8.52622 | 520 ft | 122 kts | 69° |
| 2026-04-15 07:45 | 50.02844 | 8.53818 | 366 ft | 113 kts | 66° |
| 2026-04-15 07:46 | 50.03094 | 8.54830 | 359 ft | 89 kts | 71° |
| 2026-04-15 07:46 | 50.03253 | 8.55495 | 360 ft | 40 kts | 69° |
| 2026-04-15 07:46 | 50.03372 | 8.55773 | 355 ft | 22 kts | 36° |
| 2026-04-15 07:46 | 50.03412 | 8.55822 | 359 ft | 0 kts | 38° |
| 2026-04-15 07:47 | 50.03438 | 8.55855 | 361 ft | 12 kts | 40° |
| 2026-04-15 07:48 | 50.03506 | 8.55944 | 364 ft | 14 kts | 40° |
| 2026-04-15 07:48 | 50.03582 | 8.56043 | 366 ft | 15 kts | 40° |
| 2026-04-15 07:48 | 50.03658 | 8.56177 | 364 ft | 18 kts | 63° |
| 2026-04-15 07:48 | 50.03705 | 8.56372 | 361 ft | 21 kts | 70° |
| 2026-04-15 07:49 | 50.03757 | 8.56596 | 365 ft | 23 kts | 70° |
| 2026-04-15 07:49 | 50.03817 | 8.56845 | 368 ft | 26 kts | 69° |
| 2026-04-15 07:49 | 50.03885 | 8.57116 | 365 ft | 28 kts | 69° |
| 2026-04-15 07:49 | 50.03954 | 8.57408 | 368 ft | 30 kts | 69° |
| 2026-04-15 07:50 | 50.04028 | 8.57717 | 363 ft | 31 kts | 70° |
| 2026-04-15 07:50 | 50.04106 | 8.58040 | 365 ft | 32 kts | 69° |
| 2026-04-15 07:50 | 50.04186 | 8.58373 | 367 ft | 33 kts | 70° |
| 2026-04-15 07:50 | 50.04268 | 8.58714 | 363 ft | 34 kts | 70° |
| 2026-04-15 07:51 | 50.04352 | 8.59062 | 364 ft | 35 kts | 69° |
| 2026-04-15 07:51 | 50.04422 | 8.59356 | 362 ft | 17 kts | 70° |
| 2026-04-15 07:51 | 50.04439 | 8.59416 | 363 ft | 0 kts | 62° |
| 2026-04-15 07:52 | 50.04453 | 8.59454 | 364 ft | 5 kts | 53° |
| 2026-04-15 07:52 | 50.04479 | 8.59471 | 362 ft | 4 kts | 8° |
| 2026-04-15 07:52 | 50.04518 | 8.59475 | 362 ft | 6 kts | 2° |
| 2026-04-15 07:52 | 50.04577 | 8.59473 | 365 ft | 12 kts | 358° |
| 2026-04-15 07:53 | 50.04667 | 8.59456 | 364 ft | 15 kts | 348° |
| 2026-04-15 07:53 | 50.04768 | 8.59405 | 363 ft | 12 kts | 340° |
| 2026-04-15 07:53 | 50.04839 | 8.59320 | 362 ft | 15 kts | 290° |
| 2026-04-15 07:53 | 50.04822 | 8.59166 | 363 ft | 14 kts | 250° |
| 2026-04-15 07:54 | 50.04799 | 8.59056 | 365 ft | 6 kts | 265° |
| 2026-04-15 07:54 | 50.04818 | 8.59005 | 366 ft | 5 kts | 333° |
| 2026-04-15 07:54 | 50.04851 | 8.58988 | 363 ft | 5 kts | 338° |
| 2026-04-15 07:54 | 50.04874 | 8.58974 | 364 ft | 0 kts | 339° |